sensor_id;sensor_type;location;lat;lon;timestamp;P1;durP1;ratioP1;P2;durP2;ratioP2
58647;SDS011;45992;45.920;20.074;2022-11-18T00:01:03;65.83;;;40.17;;
58647;SDS011;45992;45.920;20.074;2022-11-18T00:03:29;51.70;;;35.25;;
58647;SDS011;45992;45.920;20.074;2022-11-18T00:05:55;63.63;;;38.83;;
58647;SDS011;45992;45.920;20.074;2022-11-18T00:08:22;69.88;;;43.55;;
58647;SDS011;45992;45.920;20.074;2022-11-18T00:10:48;89.55;;;51.00;;
58647;SDS011;45992;45.920;20.074;2022-11-18T00:13:15;68.28;;;45.47;;
58647;SDS011;45992;45.920;20.074;2022-11-18T00:16:01;71.03;;;49.25;;
58647;SDS011;45992;45.920;20.074;2022-11-18T00:18:27;63.88;;;44.70;;
58647;SDS011;45992;45.920;20.074;2022-11-18T00:20:53;70.80;;;48.63;;
58647;SDS011;45992;45.920;20.074;2022-11-18T00:23:19;58.97;;;39.60;;
58647;SDS011;45992;45.920;20.074;2022-11-18T00:25:45;55.30;;;37.13;;
58647;SDS011;45992;45.920;20.074;2022-11-18T00:28:11;62.70;;;35.40;;
58647;SDS011;45992;45.920;20.074;2022-11-18T00:30:37;50.92;;;31.08;;
58647;SDS011;45992;45.920;20.074;2022-11-18T00:33:03;62.67;;;41.03;;
58647;SDS011;45992;45.920;20.074;2022-11-18T00:35:29;76.87;;;39.20;;
58647;SDS011;45992;45.920;20.074;2022-11-18T00:37:55;87.53;;;47.43;;
58647;SDS011;45992;45.920;20.074;2022-11-18T00:40:21;69.38;;;34.20;;
58647;SDS011;45992;45.920;20.074;2022-11-18T00:42:47;84.27;;;34.67;;
58647;SDS011;45992;45.920;20.074;2022-11-18T00:45:17;57.22;;;33.53;;
58647;SDS011;45992;45.920;20.074;2022-11-18T00:47:43;58.70;;;33.97;;
58647;SDS011;45992;45.920;20.074;2022-11-18T00:50:09;56.27;;;34.30;;
58647;SDS011;45992;45.920;20.074;2022-11-18T00:52:35;56.23;;;36.40;;
58647;SDS011;45992;45.920;20.074;2022-11-18T00:55:01;84.30;;;41.50;;
58647;SDS011;45992;45.920;20.074;2022-11-18T00:57:27;58.07;;;37.90;;
58647;SDS011;45992;45.920;20.074;2022-11-18T00:59:53;49.93;;;33.03;;
58647;SDS011;45992;45.920;20.074;2022-11-18T01:02:19;79.63;;;46.90;;
58647;SDS011;45992;45.920;20.074;2022-11-18T01:04:45;94.83;;;54.67;;
58647;SDS011;45992;45.920;20.074;2022-11-18T01:07:11;86.27;;;47.67;;
58647;SDS011;45992;45.920;20.074;2022-11-18T01:09:37;80.22;;;41.70;;
58647;SDS011;45992;45.920;20.074;2022-11-18T01:12:03;68.47;;;39.87;;
58647;SDS011;45992;45.920;20.074;2022-11-18T01:14:48;70.15;;;39.05;;
58647;SDS011;45992;45.920;20.074;2022-11-18T01:17:14;65.87;;;36.37;;
58647;SDS011;45992;45.920;20.074;2022-11-18T01:19:40;58.07;;;35.63;;
58647;SDS011;45992;45.920;20.074;2022-11-18T01:22:06;51.45;;;34.05;;
58647;SDS011;45992;45.920;20.074;2022-11-18T01:24:32;83.15;;;37.67;;
58647;SDS011;45992;45.920;20.074;2022-11-18T01:26:59;51.13;;;34.07;;
58647;SDS011;45992;45.920;20.074;2022-11-18T01:29:25;49.20;;;31.70;;
58647;SDS011;45992;45.920;20.074;2022-11-18T01:31:51;60.45;;;37.20;;
58647;SDS011;45992;45.920;20.074;2022-11-18T01:34:17;53.37;;;35.27;;
58647;SDS011;45992;45.920;20.074;2022-11-18T01:36:43;60.33;;;37.23;;
58647;SDS011;45992;45.920;20.074;2022-11-18T01:39:09;58.70;;;30.47;;
58647;SDS011;45992;45.920;20.074;2022-11-18T01:41:35;62.53;;;30.53;;
58647;SDS011;45992;45.920;20.074;2022-11-18T01:44:03;53.67;;;30.37;;
58647;SDS011;45992;45.920;20.074;2022-11-18T01:46:30;46.03;;;30.55;;
58647;SDS011;45992;45.920;20.074;2022-11-18T01:51:27;90.85;;;33.22;;
58647;SDS011;45992;45.920;20.074;2022-11-18T01:53:59;83.47;;;32.05;;
58647;SDS011;45992;45.920;20.074;2022-11-18T01:56:31;149.70;;;39.38;;
58647;SDS011;45992;45.920;20.074;2022-11-18T01:59:00;154.73;;;39.33;;
58647;SDS011;45992;45.920;20.074;2022-11-18T02:01:27;94.75;;;38.65;;
58647;SDS011;45992;45.920;20.074;2022-11-18T02:03:53;108.37;;;38.53;;
58647;SDS011;45992;45.920;20.074;2022-11-18T02:06:20;93.18;;;33.53;;
58647;SDS011;45992;45.920;20.074;2022-11-18T02:08:46;62.57;;;33.33;;
58647;SDS011;45992;45.920;20.074;2022-11-18T02:11:13;93.03;;;33.40;;
58647;SDS011;45992;45.920;20.074;2022-11-18T02:13:59;81.78;;;32.97;;
58647;SDS011;45992;45.920;20.074;2022-11-18T02:16:52;80.63;;;32.97;;
58647;SDS011;45992;45.920;20.074;2022-11-18T02:27:01;47.08;;;30.48;;
58647;SDS011;45992;45.920;20.074;2022-11-18T02:29:52;46.20;;;30.58;;
58647;SDS011;45992;45.920;20.074;2022-11-18T02:32:30;49.85;;;33.72;;
58647;SDS011;45992;45.920;20.074;2022-11-18T02:35:09;50.42;;;34.58;;
58647;SDS011;45992;45.920;20.074;2022-11-18T02:38:00;47.13;;;32.72;;
58647;SDS011;45992;45.920;20.074;2022-11-18T02:40:27;52.92;;;34.75;;
58647;SDS011;45992;45.920;20.074;2022-11-18T02:42:55;49.78;;;33.05;;
58647;SDS011;45992;45.920;20.074;2022-11-18T02:45:23;45.92;;;32.67;;
58647;SDS011;45992;45.920;20.074;2022-11-18T02:47:50;50.22;;;32.75;;
58647;SDS011;45992;45.920;20.074;2022-11-18T02:50:18;48.72;;;31.70;;
58647;SDS011;45992;45.920;20.074;2022-11-18T02:52:45;47.90;;;32.50;;
58647;SDS011;45992;45.920;20.074;2022-11-18T02:55:13;52.05;;;34.00;;
58647;SDS011;45992;45.920;20.074;2022-11-18T02:57:41;52.28;;;33.42;;
58647;SDS011;45992;45.920;20.074;2022-11-18T03:00:08;51.33;;;35.38;;
58647;SDS011;45992;45.920;20.074;2022-11-18T03:02:41;56.85;;;37.15;;
58647;SDS011;45992;45.920;20.074;2022-11-18T03:05:09;53.42;;;37.38;;
58647;SDS011;45992;45.920;20.074;2022-11-18T03:07:38;54.95;;;36.42;;
58647;SDS011;45992;45.920;20.074;2022-11-18T03:10:05;44.78;;;31.92;;
58647;SDS011;45992;45.920;20.074;2022-11-18T03:15:17;49.88;;;35.33;;
58647;SDS011;45992;45.920;20.074;2022-11-18T03:20:17;53.87;;;37.27;;
58647;SDS011;45992;45.920;20.074;2022-11-18T03:27:52;51.53;;;35.85;;
58647;SDS011;45992;45.920;20.074;2022-11-18T03:30:19;46.03;;;33.75;;
58647;SDS011;45992;45.920;20.074;2022-11-18T03:32:49;45.35;;;32.70;;
58647;SDS011;45992;45.920;20.074;2022-11-18T03:35:17;45.10;;;32.75;;
58647;SDS011;45992;45.920;20.074;2022-11-18T03:37:45;47.10;;;34.22;;
58647;SDS011;45992;45.920;20.074;2022-11-18T03:40:16;47.47;;;31.42;;
58647;SDS011;45992;45.920;20.074;2022-11-18T03:42:44;43.95;;;30.73;;
58647;SDS011;45992;45.920;20.074;2022-11-18T03:45:24;46.72;;;30.45;;
58647;SDS011;45992;45.920;20.074;2022-11-18T03:47:54;42.67;;;29.85;;
58647;SDS011;45992;45.920;20.074;2022-11-18T03:50:25;41.42;;;27.85;;
58647;SDS011;45992;45.920;20.074;2022-11-18T03:52:52;41.85;;;30.02;;
58647;SDS011;45992;45.920;20.074;2022-11-18T03:55:21;42.85;;;29.27;;
58647;SDS011;45992;45.920;20.074;2022-11-18T03:57:50;43.72;;;30.25;;
58647;SDS011;45992;45.920;20.074;2022-11-18T04:00:18;42.88;;;29.83;;
58647;SDS011;45992;45.920;20.074;2022-11-18T04:02:45;44.40;;;31.27;;
58647;SDS011;45992;45.920;20.074;2022-11-18T04:05:12;47.55;;;29.15;;
58647;SDS011;45992;45.920;20.074;2022-11-18T04:12:42;46.93;;;33.27;;
58647;SDS011;45992;45.920;20.074;2022-11-18T04:15:08;41.90;;;29.98;;
58647;SDS011;45992;45.920;20.074;2022-11-18T04:17:34;45.93;;;32.00;;
58647;SDS011;45992;45.920;20.074;2022-11-18T04:20:00;46.50;;;31.67;;
58647;SDS011;45992;45.920;20.074;2022-11-18T04:22:26;57.80;;;39.30;;
58647;SDS011;45992;45.920;20.074;2022-11-18T04:24:52;64.22;;;46.30;;
58647;SDS011;45992;45.920;20.074;2022-11-18T04:27:18;77.90;;;50.80;;
58647;SDS011;45992;45.920;20.074;2022-11-18T04:29:44;66.90;;;47.00;;
58647;SDS011;45992;45.920;20.074;2022-11-18T04:32:10;72.90;;;48.37;;
58647;SDS011;45992;45.920;20.074;2022-11-18T04:34:36;71.07;;;49.53;;
58647;SDS011;45992;45.920;20.074;2022-11-18T04:37:02;92.77;;;61.13;;
58647;SDS011;45992;45.920;20.074;2022-11-18T04:39:28;64.63;;;44.30;;
58647;SDS011;45992;45.920;20.074;2022-11-18T04:41:54;67.87;;;49.47;;
58647;SDS011;45992;45.920;20.074;2022-11-18T04:44:28;71.20;;;50.03;;
58647;SDS011;45992;45.920;20.074;2022-11-18T04:46:55;71.60;;;51.03;;
58647;SDS011;45992;45.920;20.074;2022-11-18T04:51:47;84.07;;;54.60;;
58647;SDS011;45992;45.920;20.074;2022-11-18T04:54:13;87.00;;;56.10;;
58647;SDS011;45992;45.920;20.074;2022-11-18T04:56:40;84.47;;;54.78;;
58647;SDS011;45992;45.920;20.074;2022-11-18T04:59:06;82.72;;;51.67;;
58647;SDS011;45992;45.920;20.074;2022-11-18T05:01:32;75.70;;;47.57;;
58647;SDS011;45992;45.920;20.074;2022-11-18T05:03:59;75.95;;;48.10;;
58647;SDS011;45992;45.920;20.074;2022-11-18T05:06:26;75.47;;;48.88;;
58647;SDS011;45992;45.920;20.074;2022-11-18T05:08:52;78.90;;;51.05;;
58647;SDS011;45992;45.920;20.074;2022-11-18T05:11:18;83.73;;;50.17;;
58647;SDS011;45992;45.920;20.074;2022-11-18T05:14:03;64.75;;;41.97;;
58647;SDS011;45992;45.920;20.074;2022-11-18T05:16:29;65.18;;;42.95;;
58647;SDS011;45992;45.920;20.074;2022-11-18T05:18:55;65.60;;;40.07;;
58647;SDS011;45992;45.920;20.074;2022-11-18T05:21:21;71.27;;;42.47;;
58647;SDS011;45992;45.920;20.074;2022-11-18T05:23:47;58.87;;;40.67;;
58647;SDS011;45992;45.920;20.074;2022-11-18T05:26:14;58.30;;;39.50;;
58647;SDS011;45992;45.920;20.074;2022-11-18T05:28:40;55.63;;;37.93;;
58647;SDS011;45992;45.920;20.074;2022-11-18T05:31:09;51.13;;;36.63;;
58647;SDS011;45992;45.920;20.074;2022-11-18T05:33:36;52.55;;;38.55;;
58647;SDS011;45992;45.920;20.074;2022-11-18T05:36:06;58.72;;;39.47;;
58647;SDS011;45992;45.920;20.074;2022-11-18T05:38:33;64.82;;;43.95;;
58647;SDS011;45992;45.920;20.074;2022-11-18T05:40:59;70.38;;;46.53;;
58647;SDS011;45992;45.920;20.074;2022-11-18T05:43:25;74.70;;;47.70;;
58647;SDS011;45992;45.920;20.074;2022-11-18T05:45:52;66.65;;;44.83;;
58647;SDS011;45992;45.920;20.074;2022-11-18T05:48:18;85.37;;;60.83;;
58647;SDS011;45992;45.920;20.074;2022-11-18T05:50:47;69.30;;;45.63;;
58647;SDS011;45992;45.920;20.074;2022-11-18T05:53:14;60.67;;;44.10;;
58647;SDS011;45992;45.920;20.074;2022-11-18T05:55:46;59.13;;;44.53;;
58647;SDS011;45992;45.920;20.074;2022-11-18T05:58:14;55.40;;;39.97;;
58647;SDS011;45992;45.920;20.074;2022-11-18T06:00:40;58.47;;;41.07;;
58647;SDS011;45992;45.920;20.074;2022-11-18T06:03:08;60.10;;;41.03;;
58647;SDS011;45992;45.920;20.074;2022-11-18T06:05:37;55.63;;;37.88;;
58647;SDS011;45992;45.920;20.074;2022-11-18T06:08:03;55.10;;;38.40;;
58647;SDS011;45992;45.920;20.074;2022-11-18T06:10:30;50.78;;;38.17;;
58647;SDS011;45992;45.920;20.074;2022-11-18T06:12:58;54.58;;;37.15;;
58647;SDS011;45992;45.920;20.074;2022-11-18T06:15:27;52.50;;;37.42;;
58647;SDS011;45992;45.920;20.074;2022-11-18T06:17:56;50.03;;;36.75;;
58647;SDS011;45992;45.920;20.074;2022-11-18T06:20:25;53.05;;;36.63;;
58647;SDS011;45992;45.920;20.074;2022-11-18T06:22:52;52.95;;;38.38;;
58647;SDS011;45992;45.920;20.074;2022-11-18T06:25:19;64.80;;;41.60;;
58647;SDS011;45992;45.920;20.074;2022-11-18T06:27:46;62.08;;;43.53;;
58647;SDS011;45992;45.920;20.074;2022-11-18T06:30:12;61.70;;;50.33;;
58647;SDS011;45992;45.920;20.074;2022-11-18T06:32:38;88.15;;;62.80;;
58647;SDS011;45992;45.920;20.074;2022-11-18T06:35:05;137.93;;;82.53;;
58647;SDS011;45992;45.920;20.074;2022-11-18T06:37:31;161.40;;;97.10;;
58647;SDS011;45992;45.920;20.074;2022-11-18T06:39:57;139.10;;;86.33;;
58647;SDS011;45992;45.920;20.074;2022-11-18T06:42:23;137.73;;;88.33;;
58647;SDS011;45992;45.920;20.074;2022-11-18T06:45:08;115.60;;;80.13;;
58647;SDS011;45992;45.920;20.074;2022-11-18T06:47:34;115.50;;;80.25;;
58647;SDS011;45992;45.920;20.074;2022-11-18T06:50:00;114.10;;;78.27;;
58647;SDS011;45992;45.920;20.074;2022-11-18T06:52:26;100.15;;;66.15;;
58647;SDS011;45992;45.920;20.074;2022-11-18T06:54:52;80.57;;;56.83;;
58647;SDS011;45992;45.920;20.074;2022-11-18T06:57:18;82.70;;;59.95;;
58647;SDS011;45992;45.920;20.074;2022-11-18T06:59:44;79.80;;;59.20;;
58647;SDS011;45992;45.920;20.074;2022-11-18T07:02:10;76.13;;;53.10;;
58647;SDS011;45992;45.920;20.074;2022-11-18T07:04:36;76.43;;;54.57;;
58647;SDS011;45992;45.920;20.074;2022-11-18T07:07:05;87.95;;;62.72;;
58647;SDS011;45992;45.920;20.074;2022-11-18T07:09:32;79.55;;;59.60;;
58647;SDS011;45992;45.920;20.074;2022-11-18T07:11:58;76.78;;;58.63;;
58647;SDS011;45992;45.920;20.074;2022-11-18T07:14:24;85.67;;;61.73;;
58647;SDS011;45992;45.920;20.074;2022-11-18T07:16:50;104.00;;;72.77;;
58647;SDS011;45992;45.920;20.074;2022-11-18T07:19:16;120.50;;;81.30;;
58647;SDS011;45992;45.920;20.074;2022-11-18T07:21:42;108.60;;;77.23;;
58647;SDS011;45992;45.920;20.074;2022-11-18T07:24:10;98.87;;;76.07;;
58647;SDS011;45992;45.920;20.074;2022-11-18T07:26:36;143.35;;;90.97;;
58647;SDS011;45992;45.920;20.074;2022-11-18T07:29:03;112.47;;;71.97;;
58647;SDS011;45992;45.920;20.074;2022-11-18T07:31:29;100.18;;;61.72;;
58647;SDS011;45992;45.920;20.074;2022-11-18T07:33:56;91.78;;;58.38;;
58647;SDS011;45992;45.920;20.074;2022-11-18T07:36:26;73.43;;;50.33;;
58647;SDS011;45992;45.920;20.074;2022-11-18T07:38:52;72.40;;;52.30;;
58647;SDS011;45992;45.920;20.074;2022-11-18T07:41:19;69.07;;;46.53;;
58647;SDS011;45992;45.920;20.074;2022-11-18T07:43:46;56.78;;;40.35;;
58647;SDS011;45992;45.920;20.074;2022-11-18T07:48:40;65.07;;;46.87;;
58647;SDS011;45992;45.920;20.074;2022-11-18T07:51:08;52.38;;;42.72;;
58647;SDS011;45992;45.920;20.074;2022-11-18T07:53:35;59.45;;;46.92;;
58647;SDS011;45992;45.920;20.074;2022-11-18T07:56:01;62.67;;;45.58;;
58647;SDS011;45992;45.920;20.074;2022-11-18T07:58:27;66.20;;;47.75;;
58647;SDS011;45992;45.920;20.074;2022-11-18T08:00:53;146.93;;;78.20;;
58647;SDS011;45992;45.920;20.074;2022-11-18T08:03:23;127.13;;;67.00;;
58647;SDS011;45992;45.920;20.074;2022-11-18T08:05:49;114.43;;;61.55;;
58647;SDS011;45992;45.920;20.074;2022-11-18T08:08:15;84.37;;;56.37;;
58647;SDS011;45992;45.920;20.074;2022-11-18T08:10:41;88.93;;;64.83;;
58647;SDS011;45992;45.920;20.074;2022-11-18T08:13:07;80.73;;;58.40;;
58647;SDS011;45992;45.920;20.074;2022-11-18T08:15:33;87.00;;;63.37;;
58647;SDS011;45992;45.920;20.074;2022-11-18T08:17:59;98.78;;;68.45;;
58647;SDS011;45992;45.920;20.074;2022-11-18T08:20:25;87.20;;;59.63;;
58647;SDS011;45992;45.920;20.074;2022-11-18T08:22:52;72.88;;;52.63;;
58647;SDS011;45992;45.920;20.074;2022-11-18T08:25:18;69.45;;;48.85;;
58647;SDS011;45992;45.920;20.074;2022-11-18T08:27:44;72.33;;;51.03;;
58647;SDS011;45992;45.920;20.074;2022-11-18T08:30:12;75.00;;;53.28;;
58647;SDS011;45992;45.920;20.074;2022-11-18T08:32:38;73.35;;;48.95;;
58647;SDS011;45992;45.920;20.074;2022-11-18T08:35:04;75.37;;;54.00;;
58647;SDS011;45992;45.920;20.074;2022-11-18T08:37:31;65.95;;;47.67;;
58647;SDS011;45992;45.920;20.074;2022-11-18T08:39:56;77.20;;;52.83;;
58647;SDS011;45992;45.920;20.074;2022-11-18T08:42:22;244.60;;;171.10;;
58647;SDS011;45992;45.920;20.074;2022-11-18T08:44:49;98.15;;;68.35;;
58647;SDS011;45992;45.920;20.074;2022-11-18T08:47:15;154.13;;;89.53;;
58647;SDS011;45992;45.920;20.074;2022-11-18T08:49:41;247.57;;;127.72;;
58647;SDS011;45992;45.920;20.074;2022-11-18T08:52:08;138.20;;;89.20;;
58647;SDS011;45992;45.920;20.074;2022-11-18T08:54:34;112.78;;;71.88;;
58647;SDS011;45992;45.920;20.074;2022-11-18T08:57:00;139.63;;;90.10;;
58647;SDS011;45992;45.920;20.074;2022-11-18T08:59:26;92.95;;;62.85;;
58647;SDS011;45992;45.920;20.074;2022-11-18T09:01:52;100.53;;;68.03;;
58647;SDS011;45992;45.920;20.074;2022-11-18T09:04:18;61.40;;;44.93;;
58647;SDS011;45992;45.920;20.074;2022-11-18T09:06:44;50.60;;;40.97;;
58647;SDS011;45992;45.920;20.074;2022-11-18T09:09:11;58.10;;;47.90;;
58647;SDS011;45992;45.920;20.074;2022-11-18T09:11:37;61.83;;;49.97;;
58647;SDS011;45992;45.920;20.074;2022-11-18T09:16:31;70.78;;;49.38;;
58647;SDS011;45992;45.920;20.074;2022-11-18T09:18:57;107.40;;;70.88;;
58647;SDS011;45992;45.920;20.074;2022-11-18T09:21:23;113.90;;;64.90;;
58647;SDS011;45992;45.920;20.074;2022-11-18T09:23:50;100.65;;;62.70;;
58647;SDS011;45992;45.920;20.074;2022-11-18T09:26:17;75.50;;;55.25;;
58647;SDS011;45992;45.920;20.074;2022-11-18T09:28:45;85.18;;;59.63;;
58647;SDS011;45992;45.920;20.074;2022-11-18T09:31:12;75.57;;;58.25;;
58647;SDS011;45992;45.920;20.074;2022-11-18T09:33:38;59.15;;;47.28;;
58647;SDS011;45992;45.920;20.074;2022-11-18T09:36:11;72.15;;;52.25;;
58647;SDS011;45992;45.920;20.074;2022-11-18T09:38:37;53.22;;;43.03;;
58647;SDS011;45992;45.920;20.074;2022-11-18T09:48:47;71.03;;;53.67;;
58647;SDS011;45992;45.920;20.074;2022-11-18T09:51:33;55.33;;;41.60;;
58647;SDS011;45992;45.920;20.074;2022-11-18T09:54:02;71.43;;;57.47;;
58647;SDS011;45992;45.920;20.074;2022-11-18T09:56:28;69.85;;;49.97;;
58647;SDS011;45992;45.920;20.074;2022-11-18T09:58:54;80.28;;;57.97;;
58647;SDS011;45992;45.920;20.074;2022-11-18T10:01:20;65.05;;;48.53;;
58647;SDS011;45992;45.920;20.074;2022-11-18T10:03:48;72.38;;;54.67;;
58647;SDS011;45992;45.920;20.074;2022-11-18T10:06:23;64.25;;;47.25;;
58647;SDS011;45992;45.920;20.074;2022-11-18T10:11:23;60.92;;;50.13;;
58647;SDS011;45992;45.920;20.074;2022-11-18T10:16:40;67.20;;;48.90;;
58647;SDS011;45992;45.920;20.074;2022-11-18T10:24:50;99.00;;;66.75;;
58647;SDS011;45992;45.920;20.074;2022-11-18T10:27:14;114.25;;;78.18;;
58647;SDS011;45992;45.920;20.074;2022-11-18T10:29:41;103.32;;;73.35;;
58647;SDS011;45992;45.920;20.074;2022-11-18T10:32:10;99.13;;;72.43;;
58647;SDS011;45992;45.920;20.074;2022-11-18T10:34:44;72.70;;;55.08;;
58647;SDS011;45992;45.920;20.074;2022-11-18T10:37:21;167.93;;;103.72;;
58647;SDS011;45992;45.920;20.074;2022-11-18T10:39:48;82.65;;;56.95;;
58647;SDS011;45992;45.920;20.074;2022-11-18T10:44:40;66.45;;;47.83;;
58647;SDS011;45992;45.920;20.074;2022-11-18T10:49:48;57.60;;;46.65;;
58647;SDS011;45992;45.920;20.074;2022-11-18T10:54:40;59.78;;;45.75;;
58647;SDS011;45992;45.920;20.074;2022-11-18T10:59:54;63.25;;;48.97;;
58647;SDS011;45992;45.920;20.074;2022-11-18T11:04:56;70.38;;;53.60;;
58647;SDS011;45992;45.920;20.074;2022-11-18T11:07:24;68.80;;;49.53;;
58647;SDS011;45992;45.920;20.074;2022-11-18T11:12:47;70.47;;;48.85;;
58647;SDS011;45992;45.920;20.074;2022-11-18T11:15:18;86.22;;;53.05;;
58647;SDS011;45992;45.920;20.074;2022-11-18T11:20:35;83.47;;;60.63;;
58647;SDS011;45992;45.920;20.074;2022-11-18T11:23:06;70.60;;;54.78;;
58647;SDS011;45992;45.920;20.074;2022-11-18T11:25:36;64.43;;;49.28;;
58647;SDS011;45992;45.920;20.074;2022-11-18T11:28:07;76.57;;;54.75;;
58647;SDS011;45992;45.920;20.074;2022-11-18T11:30:36;61.45;;;43.65;;
58647;SDS011;45992;45.920;20.074;2022-11-18T11:35:39;77.65;;;51.17;;
58647;SDS011;45992;45.920;20.074;2022-11-18T11:38:19;65.45;;;46.90;;
58647;SDS011;45992;45.920;20.074;2022-11-18T11:51:22;69.88;;;48.55;;
58647;SDS011;45992;45.920;20.074;2022-11-18T12:06:25;256.93;;;126.73;;
58647;SDS011;45992;45.920;20.074;2022-11-18T12:08:55;168.02;;;95.22;;
58647;SDS011;45992;45.920;20.074;2022-11-18T12:11:35;138.48;;;82.18;;
58647;SDS011;45992;45.920;20.074;2022-11-18T12:14:04;86.90;;;53.90;;
58647;SDS011;45992;45.920;20.074;2022-11-18T12:19:09;75.28;;;54.10;;
58647;SDS011;45992;45.920;20.074;2022-11-18T12:26:44;65.20;;;50.40;;
58647;SDS011;45992;45.920;20.074;2022-11-18T12:31:45;62.17;;;46.15;;
58647;SDS011;45992;45.920;20.074;2022-11-18T12:36:44;59.42;;;42.67;;
58647;SDS011;45992;45.920;20.074;2022-11-18T12:44:36;57.15;;;43.35;;
58647;SDS011;45992;45.920;20.074;2022-11-18T12:47:03;54.13;;;41.60;;
58647;SDS011;45992;45.920;20.074;2022-11-18T12:51:59;46.05;;;34.35;;
58647;SDS011;45992;45.920;20.074;2022-11-18T12:57:00;54.78;;;39.70;;
58647;SDS011;45992;45.920;20.074;2022-11-18T12:59:27;42.10;;;31.38;;
58647;SDS011;45992;45.920;20.074;2022-11-18T13:04:32;36.65;;;26.80;;
58647;SDS011;45992;45.920;20.074;2022-11-18T13:07:00;38.58;;;29.83;;
58647;SDS011;45992;45.920;20.074;2022-11-18T13:09:28;47.28;;;34.45;;
58647;SDS011;45992;45.920;20.074;2022-11-18T13:11:56;37.75;;;30.95;;
58647;SDS011;45992;45.920;20.074;2022-11-18T13:14:26;38.35;;;31.10;;
58647;SDS011;45992;45.920;20.074;2022-11-18T13:17:30;41.00;;;30.13;;
58647;SDS011;45992;45.920;20.074;2022-11-18T13:20:25;33.70;;;26.60;;
58647;SDS011;45992;45.920;20.074;2022-11-18T13:23:01;32.53;;;25.58;;
58647;SDS011;45992;45.920;20.074;2022-11-18T13:25:47;33.22;;;25.88;;
58647;SDS011;45992;45.920;20.074;2022-11-18T13:30:43;37.15;;;29.52;;
58647;SDS011;45992;45.920;20.074;2022-11-18T13:33:15;97.10;;;58.05;;
58647;SDS011;45992;45.920;20.074;2022-11-18T13:35:49;75.57;;;44.20;;
58647;SDS011;45992;45.920;20.074;2022-11-18T13:38:22;181.15;;;90.78;;
58647;SDS011;45992;45.920;20.074;2022-11-18T13:40:49;96.72;;;58.40;;
58647;SDS011;45992;45.920;20.074;2022-11-18T13:43:29;60.78;;;43.83;;
58647;SDS011;45992;45.920;20.074;2022-11-18T13:45:57;136.55;;;81.55;;
58647;SDS011;45992;45.920;20.074;2022-11-18T13:48:23;71.93;;;49.15;;
58647;SDS011;45992;45.920;20.074;2022-11-18T13:50:50;58.22;;;40.88;;
58647;SDS011;45992;45.920;20.074;2022-11-18T13:53:29;69.00;;;50.25;;
58647;SDS011;45992;45.920;20.074;2022-11-18T13:56:00;83.03;;;51.22;;
58647;SDS011;45992;45.920;20.074;2022-11-18T14:01:00;66.88;;;43.20;;
58647;SDS011;45992;45.920;20.074;2022-11-18T14:03:35;64.53;;;44.70;;
58647;SDS011;45992;45.920;20.074;2022-11-18T14:06:05;74.55;;;48.88;;
58647;SDS011;45992;45.920;20.074;2022-11-18T14:08:32;97.32;;;61.38;;
58647;SDS011;45992;45.920;20.074;2022-11-18T14:10:59;93.45;;;58.80;;
58647;SDS011;45992;45.920;20.074;2022-11-18T14:18:47;81.60;;;46.17;;
58647;SDS011;45992;45.920;20.074;2022-11-18T14:21:14;51.08;;;33.00;;
58647;SDS011;45992;45.920;20.074;2022-11-18T14:23:51;47.63;;;30.40;;
58647;SDS011;45992;45.920;20.074;2022-11-18T14:26:25;45.92;;;27.88;;
58647;SDS011;45992;45.920;20.074;2022-11-18T14:28:53;45.80;;;27.52;;
58647;SDS011;45992;45.920;20.074;2022-11-18T14:31:29;54.83;;;36.25;;
58647;SDS011;45992;45.920;20.074;2022-11-18T14:34:10;70.68;;;40.85;;
58647;SDS011;45992;45.920;20.074;2022-11-18T14:36:39;66.65;;;41.42;;
58647;SDS011;45992;45.920;20.074;2022-11-18T14:39:16;75.95;;;45.70;;
58647;SDS011;45992;45.920;20.074;2022-11-18T14:41:43;67.07;;;41.90;;
58647;SDS011;45992;45.920;20.074;2022-11-18T14:44:12;57.90;;;37.72;;
58647;SDS011;45992;45.920;20.074;2022-11-18T14:46:39;48.08;;;32.97;;
58647;SDS011;45992;45.920;20.074;2022-11-18T14:49:09;56.42;;;39.40;;
58647;SDS011;45992;45.920;20.074;2022-11-18T14:51:36;51.17;;;36.42;;
58647;SDS011;45992;45.920;20.074;2022-11-18T14:54:02;61.20;;;40.42;;
58647;SDS011;45992;45.920;20.074;2022-11-18T14:56:29;59.08;;;42.08;;
58647;SDS011;45992;45.920;20.074;2022-11-18T14:58:56;54.53;;;37.85;;
58647;SDS011;45992;45.920;20.074;2022-11-18T15:01:22;60.72;;;39.90;;
58647;SDS011;45992;45.920;20.074;2022-11-18T15:03:53;65.72;;;38.33;;
58647;SDS011;45992;45.920;20.074;2022-11-18T15:06:19;53.03;;;34.38;;
58647;SDS011;45992;45.920;20.074;2022-11-18T15:08:46;50.28;;;32.88;;
58647;SDS011;45992;45.920;20.074;2022-11-18T15:11:13;48.47;;;32.25;;
58647;SDS011;45992;45.920;20.074;2022-11-18T15:13:39;44.53;;;30.47;;
58647;SDS011;45992;45.920;20.074;2022-11-18T15:16:15;39.83;;;26.73;;
58647;SDS011;45992;45.920;20.074;2022-11-18T15:18:42;43.00;;;29.77;;
58647;SDS011;45992;45.920;20.074;2022-11-18T15:21:08;45.53;;;26.80;;
58647;SDS011;45992;45.920;20.074;2022-11-18T15:23:35;47.50;;;30.65;;
58647;SDS011;45992;45.920;20.074;2022-11-18T15:26:02;36.33;;;26.85;;
58647;SDS011;45992;45.920;20.074;2022-11-18T15:30:54;30.25;;;23.77;;
58647;SDS011;45992;45.920;20.074;2022-11-18T15:33:20;33.00;;;26.63;;
58647;SDS011;45992;45.920;20.074;2022-11-18T15:35:46;32.93;;;26.63;;
58647;SDS011;45992;45.920;20.074;2022-11-18T15:38:12;30.87;;;25.57;;
58647;SDS011;45992;45.920;20.074;2022-11-18T15:40:38;34.13;;;25.63;;
58647;SDS011;45992;45.920;20.074;2022-11-18T15:43:04;33.67;;;25.42;;
58647;SDS011;45992;45.920;20.074;2022-11-18T15:45:30;36.70;;;30.47;;
58647;SDS011;45992;45.920;20.074;2022-11-18T15:47:58;35.83;;;27.95;;
58647;SDS011;45992;45.920;20.074;2022-11-18T15:50:24;25.90;;;21.42;;
58647;SDS011;45992;45.920;20.074;2022-11-18T15:52:50;29.67;;;23.23;;
58647;SDS011;45992;45.920;20.074;2022-11-18T15:55:18;31.02;;;22.25;;
58647;SDS011;45992;45.920;20.074;2022-11-18T15:57:44;25.63;;;21.05;;
58647;SDS011;45992;45.920;20.074;2022-11-18T16:00:10;25.20;;;21.37;;
58647;SDS011;45992;45.920;20.074;2022-11-18T16:02:36;25.45;;;20.65;;
58647;SDS011;45992;45.920;20.074;2022-11-18T16:05:02;26.25;;;21.73;;
58647;SDS011;45992;45.920;20.074;2022-11-18T16:07:28;31.95;;;24.60;;
58647;SDS011;45992;45.920;20.074;2022-11-18T16:09:54;39.17;;;27.48;;
58647;SDS011;45992;45.920;20.074;2022-11-18T16:12:39;37.80;;;28.70;;
58647;SDS011;45992;45.920;20.074;2022-11-18T16:15:11;37.63;;;29.65;;
58647;SDS011;45992;45.920;20.074;2022-11-18T16:17:56;35.35;;;27.60;;
58647;SDS011;45992;45.920;20.074;2022-11-18T16:20:22;41.17;;;27.52;;
58647;SDS011;45992;45.920;20.074;2022-11-18T16:22:48;36.38;;;27.20;;
58647;SDS011;45992;45.920;20.074;2022-11-18T16:25:16;48.30;;;34.25;;
58647;SDS011;45992;45.920;20.074;2022-11-18T16:27:43;48.70;;;30.88;;
58647;SDS011;45992;45.920;20.074;2022-11-18T16:30:16;43.03;;;29.58;;